sensor_id;sensor_type;location;lat;lon;timestamp;P1;durP1;ratioP1;P2;durP2;ratioP2
75098;SDS011;63685;47.374;8.498;2022-10-16T00:02:20;1.30;;;0.70;;
75098;SDS011;63685;47.374;8.498;2022-10-16T00:04:45;1.17;;;0.63;;
75098;SDS011;63685;47.374;8.498;2022-10-16T00:07:11;0.90;;;0.50;;
75098;SDS011;63685;47.374;8.498;2022-10-16T00:09:37;1.25;;;0.70;;
75098;SDS011;63685;47.374;8.498;2022-10-16T00:12:02;2.25;;;0.90;;
75098;SDS011;63685;47.374;8.498;2022-10-16T00:14:29;1.10;;;0.70;;
75098;SDS011;63685;47.374;8.498;2022-10-16T00:16:55;1.77;;;0.70;;
75098;SDS011;63685;47.374;8.498;2022-10-16T00:19:20;1.40;;;0.70;;
75098;SDS011;63685;47.374;8.498;2022-10-16T00:21:46;1.17;;;0.70;;
75098;SDS011;63685;47.374;8.498;2022-10-16T00:24:12;1.27;;;0.73;;
75098;SDS011;63685;47.374;8.498;2022-10-16T00:26:37;1.10;;;0.60;;
75098;SDS011;63685;47.374;8.498;2022-10-16T00:29:04;1.15;;;0.60;;
75098;SDS011;63685;47.374;8.498;2022-10-16T00:31:31;1.40;;;0.75;;
75098;SDS011;63685;47.374;8.498;2022-10-16T00:33:57;1.23;;;0.65;;
75098;SDS011;63685;47.374;8.498;2022-10-16T00:36:23;1.50;;;0.80;;
75098;SDS011;63685;47.374;8.498;2022-10-16T00:38:51;1.02;;;0.57;;
75098;SDS011;63685;47.374;8.498;2022-10-16T00:41:20;1.33;;;0.73;;
75098;SDS011;63685;47.374;8.498;2022-10-16T00:43:48;1.42;;;0.70;;
75098;SDS011;63685;47.374;8.498;2022-10-16T00:46:17;1.30;;;0.68;;
75098;SDS011;63685;47.374;8.498;2022-10-16T00:48:45;1.20;;;0.70;;
75098;SDS011;63685;47.374;8.498;2022-10-16T00:51:14;1.00;;;0.60;;
75098;SDS011;63685;47.374;8.498;2022-10-16T00:53:40;2.15;;;0.80;;
75098;SDS011;63685;47.374;8.498;2022-10-16T00:56:06;1.20;;;0.60;;
75098;SDS011;63685;47.374;8.498;2022-10-16T00:58:31;1.27;;;0.70;;
75098;SDS011;63685;47.374;8.498;2022-10-16T01:00:57;1.25;;;0.60;;
75098;SDS011;63685;47.374;8.498;2022-10-16T01:03:24;1.15;;;0.70;;
75098;SDS011;63685;47.374;8.498;2022-10-16T01:05:59;1.13;;;0.63;;
75098;SDS011;63685;47.374;8.498;2022-10-16T01:08:42;1.40;;;0.80;;
75098;SDS011;63685;47.374;8.498;2022-10-16T01:11:19;1.05;;;0.60;;
75098;SDS011;63685;47.374;8.498;2022-10-16T01:13:54;1.33;;;0.70;;
75098;SDS011;63685;47.374;8.498;2022-10-16T01:16:38;1.00;;;0.57;;
75098;SDS011;63685;47.374;8.498;2022-10-16T01:19:14;1.30;;;0.68;;
75098;SDS011;63685;47.374;8.498;2022-10-16T01:21:59;1.20;;;0.60;;
75098;SDS011;63685;47.374;8.498;2022-10-16T01:24:28;1.48;;;0.73;;
75098;SDS011;63685;47.374;8.498;2022-10-16T01:27:12;1.42;;;0.73;;
75098;SDS011;63685;47.374;8.498;2022-10-16T01:29:48;1.30;;;0.70;;
75098;SDS011;63685;47.374;8.498;2022-10-16T01:32:36;1.10;;;0.50;;
75098;SDS011;63685;47.374;8.498;2022-10-16T01:35:11;1.25;;;0.70;;
75098;SDS011;63685;47.374;8.498;2022-10-16T01:37:49;1.20;;;0.60;;
75098;SDS011;63685;47.374;8.498;2022-10-16T01:40:19;2.22;;;0.80;;
75098;SDS011;63685;47.374;8.498;2022-10-16T01:42:49;1.15;;;0.70;;
75098;SDS011;63685;47.374;8.498;2022-10-16T01:45:29;1.10;;;0.60;;
75098;SDS011;63685;47.374;8.498;2022-10-16T01:47:56;1.38;;;0.63;;
75098;SDS011;63685;47.374;8.498;2022-10-16T01:50:25;1.17;;;0.60;;
75098;SDS011;63685;47.374;8.498;2022-10-16T01:52:52;1.88;;;0.60;;
75098;SDS011;63685;47.374;8.498;2022-10-16T01:55:20;1.30;;;0.70;;
75098;SDS011;63685;47.374;8.498;2022-10-16T01:57:50;1.10;;;0.60;;
75098;SDS011;63685;47.374;8.498;2022-10-16T02:00:19;1.10;;;0.70;;
75098;SDS011;63685;47.374;8.498;2022-10-16T02:02:47;1.23;;;0.70;;
75098;SDS011;63685;47.374;8.498;2022-10-16T02:05:17;2.22;;;0.82;;
75098;SDS011;63685;47.374;8.498;2022-10-16T02:07:51;1.38;;;0.77;;
75098;SDS011;63685;47.374;8.498;2022-10-16T02:10:17;1.23;;;0.70;;
75098;SDS011;63685;47.374;8.498;2022-10-16T02:12:50;1.33;;;0.73;;
75098;SDS011;63685;47.374;8.498;2022-10-16T02:15:22;1.00;;;0.60;;
75098;SDS011;63685;47.374;8.498;2022-10-16T02:17:48;1.15;;;0.65;;
75098;SDS011;63685;47.374;8.498;2022-10-16T02:20:13;1.20;;;0.70;;
75098;SDS011;63685;47.374;8.498;2022-10-16T02:22:40;1.58;;;0.70;;
75098;SDS011;63685;47.374;8.498;2022-10-16T02:25:29;1.38;;;0.80;;
75098;SDS011;63685;47.374;8.498;2022-10-16T02:28:07;1.30;;;0.67;;
75098;SDS011;63685;47.374;8.498;2022-10-16T02:33:28;1.25;;;0.70;;
75098;SDS011;63685;47.374;8.498;2022-10-16T02:35:54;1.05;;;0.60;;
75098;SDS011;63685;47.374;8.498;2022-10-16T02:38:22;1.48;;;0.70;;
75098;SDS011;63685;47.374;8.498;2022-10-16T02:40:49;1.25;;;0.70;;
75098;SDS011;63685;47.374;8.498;2022-10-16T02:43:14;2.28;;;0.85;;
75098;SDS011;63685;47.374;8.498;2022-10-16T02:45:41;2.13;;;0.70;;
75098;SDS011;63685;47.374;8.498;2022-10-16T02:48:06;1.33;;;0.70;;
75098;SDS011;63685;47.374;8.498;2022-10-16T02:50:32;1.23;;;0.70;;
75098;SDS011;63685;47.374;8.498;2022-10-16T02:52:58;1.20;;;0.60;;
75098;SDS011;63685;47.374;8.498;2022-10-16T02:55:24;1.00;;;0.50;;
75098;SDS011;63685;47.374;8.498;2022-10-16T02:57:49;1.10;;;0.63;;
75098;SDS011;63685;47.374;8.498;2022-10-16T03:00:15;1.05;;;0.60;;
75098;SDS011;63685;47.374;8.498;2022-10-16T03:02:42;1.20;;;0.70;;
75098;SDS011;63685;47.374;8.498;2022-10-16T03:05:07;1.40;;;0.73;;
75098;SDS011;63685;47.374;8.498;2022-10-16T03:07:34;1.30;;;0.70;;
75098;SDS011;63685;47.374;8.498;2022-10-16T03:09:59;1.60;;;0.85;;
75098;SDS011;63685;47.374;8.498;2022-10-16T03:12:28;1.50;;;0.70;;
75098;SDS011;63685;47.374;8.498;2022-10-16T03:14:54;1.25;;;0.70;;
75098;SDS011;63685;47.374;8.498;2022-10-16T03:17:21;1.83;;;0.70;;
75098;SDS011;63685;47.374;8.498;2022-10-16T03:19:47;1.15;;;0.70;;
75098;SDS011;63685;47.374;8.498;2022-10-16T03:22:13;1.30;;;0.70;;
75098;SDS011;63685;47.374;8.498;2022-10-16T03:24:38;1.02;;;0.60;;
75098;SDS011;63685;47.374;8.498;2022-10-16T03:27:04;2.53;;;0.70;;
75098;SDS011;63685;47.374;8.498;2022-10-16T03:29:29;1.10;;;0.63;;
75098;SDS011;63685;47.374;8.498;2022-10-16T03:31:55;1.30;;;0.70;;
75098;SDS011;63685;47.374;8.498;2022-10-16T03:34:21;1.00;;;0.60;;
75098;SDS011;63685;47.374;8.498;2022-10-16T03:36:47;1.00;;;0.60;;
75098;SDS011;63685;47.374;8.498;2022-10-16T03:39:13;1.05;;;0.60;;
75098;SDS011;63685;47.374;8.498;2022-10-16T03:41:38;1.42;;;0.63;;
75098;SDS011;63685;47.374;8.498;2022-10-16T03:44:04;1.25;;;0.70;;
75098;SDS011;63685;47.374;8.498;2022-10-16T03:46:29;1.17;;;0.70;;
75098;SDS011;63685;47.374;8.498;2022-10-16T03:48:55;1.13;;;0.65;;
75098;SDS011;63685;47.374;8.498;2022-10-16T03:51:20;1.10;;;0.70;;
75098;SDS011;63685;47.374;8.498;2022-10-16T03:53:46;0.80;;;0.50;;
75098;SDS011;63685;47.374;8.498;2022-10-16T03:56:11;1.02;;;0.60;;
75098;SDS011;63685;47.374;8.498;2022-10-16T03:58:37;1.60;;;0.80;;
75098;SDS011;63685;47.374;8.498;2022-10-16T04:01:03;2.25;;;0.70;;
75098;SDS011;63685;47.374;8.498;2022-10-16T04:03:28;1.13;;;0.60;;
75098;SDS011;63685;47.374;8.498;2022-10-16T04:05:54;0.98;;;0.50;;
75098;SDS011;63685;47.374;8.498;2022-10-16T04:08:19;1.42;;;0.80;;
75098;SDS011;63685;47.374;8.498;2022-10-16T04:10:45;0.90;;;0.60;;
75098;SDS011;63685;47.374;8.498;2022-10-16T04:13:11;1.33;;;0.70;;
75098;SDS011;63685;47.374;8.498;2022-10-16T04:15:37;1.30;;;0.70;;
75098;SDS011;63685;47.374;8.498;2022-10-16T04:18:03;1.33;;;0.60;;
75098;SDS011;63685;47.374;8.498;2022-10-16T04:20:29;1.10;;;0.70;;
75098;SDS011;63685;47.374;8.498;2022-10-16T04:22:55;1.58;;;0.70;;
75098;SDS011;63685;47.374;8.498;2022-10-16T04:25:20;1.30;;;0.70;;
75098;SDS011;63685;47.374;8.498;2022-10-16T04:27:46;1.10;;;0.70;;
75098;SDS011;63685;47.374;8.498;2022-10-16T04:30:12;1.70;;;0.70;;
75098;SDS011;63685;47.374;8.498;2022-10-16T04:32:37;0.95;;;0.50;;
75098;SDS011;63685;47.374;8.498;2022-10-16T04:35:03;1.13;;;0.52;;
75098;SDS011;63685;47.374;8.498;2022-10-16T04:37:29;1.67;;;0.85;;
75098;SDS011;63685;47.374;8.498;2022-10-16T04:39:54;1.30;;;0.82;;
75098;SDS011;63685;47.374;8.498;2022-10-16T04:42:20;1.40;;;0.70;;
75098;SDS011;63685;47.374;8.498;2022-10-16T04:44:46;1.20;;;0.70;;
75098;SDS011;63685;47.374;8.498;2022-10-16T04:47:12;1.20;;;0.60;;
75098;SDS011;63685;47.374;8.498;2022-10-16T04:49:38;1.48;;;0.75;;
75098;SDS011;63685;47.374;8.498;2022-10-16T04:52:03;1.02;;;0.55;;
75098;SDS011;63685;47.374;8.498;2022-10-16T04:54:29;1.27;;;0.73;;
75098;SDS011;63685;47.374;8.498;2022-10-16T04:56:55;1.20;;;0.70;;
75098;SDS011;63685;47.374;8.498;2022-10-16T04:59:20;1.10;;;0.60;;
75098;SDS011;63685;47.374;8.498;2022-10-16T05:01:47;1.10;;;0.65;;
75098;SDS011;63685;47.374;8.498;2022-10-16T05:04:13;1.08;;;0.70;;
75098;SDS011;63685;47.374;8.498;2022-10-16T05:06:40;1.20;;;0.70;;
75098;SDS011;63685;47.374;8.498;2022-10-16T05:09:06;1.50;;;0.70;;
75098;SDS011;63685;47.374;8.498;2022-10-16T05:11:32;1.15;;;0.70;;
75098;SDS011;63685;47.374;8.498;2022-10-16T05:13:57;1.02;;;0.50;;
75098;SDS011;63685;47.374;8.498;2022-10-16T05:16:23;1.42;;;0.80;;
75098;SDS011;63685;47.374;8.498;2022-10-16T05:18:49;1.38;;;0.70;;
75098;SDS011;63685;47.374;8.498;2022-10-16T05:21:16;1.27;;;0.65;;
75098;SDS011;63685;47.374;8.498;2022-10-16T05:23:42;1.20;;;0.60;;
75098;SDS011;63685;47.374;8.498;2022-10-16T05:26:07;1.33;;;0.73;;
75098;SDS011;63685;47.374;8.498;2022-10-16T05:28:33;1.70;;;0.80;;
75098;SDS011;63685;47.374;8.498;2022-10-16T05:30:59;1.02;;;0.60;;
75098;SDS011;63685;47.374;8.498;2022-10-16T05:33:28;1.60;;;0.73;;
75098;SDS011;63685;47.374;8.498;2022-10-16T05:35:54;1.30;;;0.73;;
75098;SDS011;63685;47.374;8.498;2022-10-16T05:38:19;1.33;;;0.70;;
75098;SDS011;63685;47.374;8.498;2022-10-16T05:40:50;1.00;;;0.60;;
75098;SDS011;63685;47.374;8.498;2022-10-16T05:43:17;0.90;;;0.60;;
75098;SDS011;63685;47.374;8.498;2022-10-16T05:45:43;1.27;;;0.70;;
75098;SDS011;63685;47.374;8.498;2022-10-16T05:48:08;1.60;;;0.88;;
75098;SDS011;63685;47.374;8.498;2022-10-16T05:50:34;1.05;;;0.60;;
75098;SDS011;63685;47.374;8.498;2022-10-16T05:52:59;1.10;;;0.60;;
75098;SDS011;63685;47.374;8.498;2022-10-16T05:55:25;1.20;;;0.60;;
75098;SDS011;63685;47.374;8.498;2022-10-16T05:57:53;1.10;;;0.50;;
75098;SDS011;63685;47.374;8.498;2022-10-16T06:00:19;1.38;;;0.75;;
75098;SDS011;63685;47.374;8.498;2022-10-16T06:02:45;1.08;;;0.63;;
75098;SDS011;63685;47.374;8.498;2022-10-16T06:05:10;1.10;;;0.60;;
75098;SDS011;63685;47.374;8.498;2022-10-16T06:07:36;1.17;;;0.68;;
75098;SDS011;63685;47.374;8.498;2022-10-16T06:10:02;1.00;;;0.52;;
75098;SDS011;63685;47.374;8.498;2022-10-16T06:12:28;1.23;;;0.60;;
75098;SDS011;63685;47.374;8.498;2022-10-16T06:14:54;1.33;;;0.80;;
75098;SDS011;63685;47.374;8.498;2022-10-16T06:17:20;1.13;;;0.65;;
75098;SDS011;63685;47.374;8.498;2022-10-16T06:19:45;1.10;;;0.70;;
75098;SDS011;63685;47.374;8.498;2022-10-16T06:22:11;1.20;;;0.70;;
75098;SDS011;63685;47.374;8.498;2022-10-16T06:24:37;1.08;;;0.50;;
75098;SDS011;63685;47.374;8.498;2022-10-16T06:27:03;1.27;;;0.57;;
75098;SDS011;63685;47.374;8.498;2022-10-16T06:29:29;1.30;;;0.60;;
75098;SDS011;63685;47.374;8.498;2022-10-16T06:31:55;1.20;;;0.68;;
75098;SDS011;63685;47.374;8.498;2022-10-16T06:34:20;1.67;;;0.68;;
75098;SDS011;63685;47.374;8.498;2022-10-16T06:36:46;1.30;;;0.70;;
75098;SDS011;63685;47.374;8.498;2022-10-16T06:39:11;1.00;;;0.60;;
75098;SDS011;63685;47.374;8.498;2022-10-16T06:41:37;1.20;;;0.60;;
75098;SDS011;63685;47.374;8.498;2022-10-16T06:44:06;1.00;;;0.60;;
75098;SDS011;63685;47.374;8.498;2022-10-16T06:46:32;1.00;;;0.52;;
75098;SDS011;63685;47.374;8.498;2022-10-16T06:48:58;1.27;;;0.73;;
75098;SDS011;63685;47.374;8.498;2022-10-16T06:51:25;1.05;;;0.60;;
75098;SDS011;63685;47.374;8.498;2022-10-16T06:53:51;1.00;;;0.50;;
75098;SDS011;63685;47.374;8.498;2022-10-16T06:56:20;1.27;;;0.68;;
75098;SDS011;63685;47.374;8.498;2022-10-16T06:58:48;0.90;;;0.50;;
75098;SDS011;63685;47.374;8.498;2022-10-16T07:01:16;0.95;;;0.50;;
75098;SDS011;63685;47.374;8.498;2022-10-16T07:03:43;1.42;;;0.70;;
75098;SDS011;63685;47.374;8.498;2022-10-16T07:06:10;1.25;;;0.70;;
75098;SDS011;63685;47.374;8.498;2022-10-16T07:08:39;1.20;;;0.70;;
75098;SDS011;63685;47.374;8.498;2022-10-16T07:11:14;1.20;;;0.60;;
75098;SDS011;63685;47.374;8.498;2022-10-16T07:13:41;1.10;;;0.60;;
75098;SDS011;63685;47.374;8.498;2022-10-16T07:16:09;1.02;;;0.60;;
75098;SDS011;63685;47.374;8.498;2022-10-16T07:18:35;1.10;;;0.55;;
75098;SDS011;63685;47.374;8.498;2022-10-16T07:23:30;1.20;;;0.68;;
75098;SDS011;63685;47.374;8.498;2022-10-16T07:25:56;1.10;;;0.60;;
75098;SDS011;63685;47.374;8.498;2022-10-16T07:28:22;1.20;;;0.70;;
75098;SDS011;63685;47.374;8.498;2022-10-16T07:30:47;0.95;;;0.50;;
75098;SDS011;63685;47.374;8.498;2022-10-16T07:33:13;1.15;;;0.55;;
75098;SDS011;63685;47.374;8.498;2022-10-16T07:35:46;0.90;;;0.60;;
75098;SDS011;63685;47.374;8.498;2022-10-16T07:38:13;2.03;;;0.60;;
75098;SDS011;63685;47.374;8.498;2022-10-16T07:40:38;0.95;;;0.52;;
75098;SDS011;63685;47.374;8.498;2022-10-16T07:43:04;0.90;;;0.60;;
75098;SDS011;63685;47.374;8.498;2022-10-16T07:45:30;1.15;;;0.63;;
75098;SDS011;63685;47.374;8.498;2022-10-16T07:47:55;0.98;;;0.57;;
75098;SDS011;63685;47.374;8.498;2022-10-16T07:50:21;1.13;;;0.60;;
75098;SDS011;63685;47.374;8.498;2022-10-16T07:52:47;1.20;;;0.70;;
75098;SDS011;63685;47.374;8.498;2022-10-16T07:55:12;1.02;;;0.60;;
75098;SDS011;63685;47.374;8.498;2022-10-16T07:57:38;1.15;;;0.50;;
75098;SDS011;63685;47.374;8.498;2022-10-16T08:00:03;1.30;;;0.65;;
75098;SDS011;63685;47.374;8.498;2022-10-16T08:02:30;1.25;;;0.70;;
75098;SDS011;63685;47.374;8.498;2022-10-16T08:04:56;1.45;;;0.70;;
75098;SDS011;63685;47.374;8.498;2022-10-16T08:07:22;1.77;;;0.80;;
75098;SDS011;63685;47.374;8.498;2022-10-16T08:09:50;1.10;;;0.50;;
75098;SDS011;63685;47.374;8.498;2022-10-16T08:12:16;1.40;;;0.70;;
75098;SDS011;63685;47.374;8.498;2022-10-16T08:14:42;0.90;;;0.60;;
75098;SDS011;63685;47.374;8.498;2022-10-16T08:17:07;1.10;;;0.60;;
75098;SDS011;63685;47.374;8.498;2022-10-16T08:19:33;0.95;;;0.60;;
75098;SDS011;63685;47.374;8.498;2022-10-16T08:21:59;1.15;;;0.63;;
75098;SDS011;63685;47.374;8.498;2022-10-16T08:24:25;1.27;;;0.65;;
75098;SDS011;63685;47.374;8.498;2022-10-16T08:26:53;1.40;;;0.70;;
75098;SDS011;63685;47.374;8.498;2022-10-16T08:29:19;0.95;;;0.60;;
75098;SDS011;63685;47.374;8.498;2022-10-16T08:31:45;1.02;;;0.60;;
75098;SDS011;63685;47.374;8.498;2022-10-16T08:34:10;1.27;;;0.73;;
75098;SDS011;63685;47.374;8.498;2022-10-16T08:36:36;1.20;;;0.60;;
75098;SDS011;63685;47.374;8.498;2022-10-16T08:39:01;0.90;;;0.50;;
75098;SDS011;63685;47.374;8.498;2022-10-16T08:41:37;0.88;;;0.50;;
75098;SDS011;63685;47.374;8.498;2022-10-16T08:47:05;1.23;;;0.70;;
75098;SDS011;63685;47.374;8.498;2022-10-16T08:49:58;1.67;;;0.75;;
75098;SDS011;63685;47.374;8.498;2022-10-16T08:52:30;1.00;;;0.60;;
75098;SDS011;63685;47.374;8.498;2022-10-16T08:55:00;0.90;;;0.50;;
75098;SDS011;63685;47.374;8.498;2022-10-16T08:57:26;0.88;;;0.47;;
75098;SDS011;63685;47.374;8.498;2022-10-16T08:59:52;1.00;;;0.50;;
75098;SDS011;63685;47.374;8.498;2022-10-16T09:13:19;1.40;;;0.60;;
75098;SDS011;63685;47.374;8.498;2022-10-16T09:18:45;1.20;;;0.70;;
75098;SDS011;63685;47.374;8.498;2022-10-16T09:21:21;1.00;;;0.57;;
75098;SDS011;63685;47.374;8.498;2022-10-16T09:23:48;0.98;;;0.52;;
75098;SDS011;63685;47.374;8.498;2022-10-16T09:26:15;0.93;;;0.50;;
75098;SDS011;63685;47.374;8.498;2022-10-16T09:28:43;1.02;;;0.50;;
75098;SDS011;63685;47.374;8.498;2022-10-16T09:31:15;1.15;;;0.70;;
75098;SDS011;63685;47.374;8.498;2022-10-16T09:33:52;0.90;;;0.50;;
75098;SDS011;63685;47.374;8.498;2022-10-16T09:36:20;1.10;;;0.60;;
75098;SDS011;63685;47.374;8.498;2022-10-16T09:38:48;1.08;;;0.57;;
75098;SDS011;63685;47.374;8.498;2022-10-16T09:41:21;0.90;;;0.50;;
75098;SDS011;63685;47.374;8.498;2022-10-16T09:43:49;1.20;;;0.65;;
75098;SDS011;63685;47.374;8.498;2022-10-16T09:46:26;1.23;;;0.60;;
75098;SDS011;63685;47.374;8.498;2022-10-16T09:48:55;0.80;;;0.50;;
75098;SDS011;63685;47.374;8.498;2022-10-16T09:53:56;0.73;;;0.50;;
75098;SDS011;63685;47.374;8.498;2022-10-16T09:56:33;1.15;;;0.65;;
75098;SDS011;63685;47.374;8.498;2022-10-16T09:59:13;1.05;;;0.50;;
75098;SDS011;63685;47.374;8.498;2022-10-16T10:01:40;1.33;;;0.60;;
75098;SDS011;63685;47.374;8.498;2022-10-16T10:04:11;1.20;;;0.60;;
75098;SDS011;63685;47.374;8.498;2022-10-16T10:06:42;0.90;;;0.60;;
75098;SDS011;63685;47.374;8.498;2022-10-16T10:11:50;0.77;;;0.50;;
75098;SDS011;63685;47.374;8.498;2022-10-16T10:14:22;1.08;;;0.50;;
75098;SDS011;63685;47.374;8.498;2022-10-16T10:22:22;0.80;;;0.47;;
75098;SDS011;63685;47.374;8.498;2022-10-16T10:33:03;1.10;;;0.50;;
75098;SDS011;63685;47.374;8.498;2022-10-16T10:39:15;1.15;;;0.60;;
75098;SDS011;63685;47.374;8.498;2022-10-16T10:41:32;0.80;;;0.40;;
75098;SDS011;63685;47.374;8.498;2022-10-16T10:47:12;0.90;;;0.50;;
75098;SDS011;63685;47.374;8.498;2022-10-16T10:52:27;0.60;;;0.40;;
75098;SDS011;63685;47.374;8.498;2022-10-16T10:58:05;1.08;;;0.60;;
75098;SDS011;63685;47.374;8.498;2022-10-16T11:00:43;0.75;;;0.40;;
75098;SDS011;63685;47.374;8.498;2022-10-16T11:03:24;1.25;;;0.70;;
75098;SDS011;63685;47.374;8.498;2022-10-16T11:06:20;1.02;;;0.60;;
75098;SDS011;63685;47.374;8.498;2022-10-16T11:08:57;1.02;;;0.60;;
75098;SDS011;63685;47.374;8.498;2022-10-16T11:11:47;0.90;;;0.50;;
75098;SDS011;63685;47.374;8.498;2022-10-16T11:14:33;1.23;;;0.63;;
75098;SDS011;63685;47.374;8.498;2022-10-16T11:17:23;1.17;;;0.63;;
75098;SDS011;63685;47.374;8.498;2022-10-16T11:19:55;0.90;;;0.50;;
75098;SDS011;63685;47.374;8.498;2022-10-16T11:25:02;1.15;;;0.60;;
75098;SDS011;63685;47.374;8.498;2022-10-16T11:27:52;1.10;;;0.60;;
75098;SDS011;63685;47.374;8.498;2022-10-16T11:30:46;1.20;;;0.70;;
75098;SDS011;63685;47.374;8.498;2022-10-16T11:38:33;0.95;;;0.47;;
75098;SDS011;63685;47.374;8.498;2022-10-16T11:43:56;1.13;;;0.70;;
75098;SDS011;63685;47.374;8.498;2022-10-16T11:46:31;0.98;;;0.55;;
75098;SDS011;63685;47.374;8.498;2022-10-16T11:49:08;0.77;;;0.50;;
75098;SDS011;63685;47.374;8.498;2022-10-16T11:51:45;1.35;;;0.73;;
75098;SDS011;63685;47.374;8.498;2022-10-16T11:54:22;1.00;;;0.60;;
75098;SDS011;63685;47.374;8.498;2022-10-16T11:57:13;1.10;;;0.70;;
75098;SDS011;63685;47.374;8.498;2022-10-16T12:05:01;0.90;;;0.60;;
75098;SDS011;63685;47.374;8.498;2022-10-16T12:07:48;1.15;;;0.60;;
75098;SDS011;63685;47.374;8.498;2022-10-16T12:10:28;0.90;;;0.50;;
75098;SDS011;63685;47.374;8.498;2022-10-16T12:12:56;1.17;;;0.70;;
75098;SDS011;63685;47.374;8.498;2022-10-16T12:15:24;1.08;;;0.52;;
75098;SDS011;63685;47.374;8.498;2022-10-16T12:17:51;1.33;;;0.60;;
75098;SDS011;63685;47.374;8.498;2022-10-16T12:20:22;1.20;;;0.70;;
75098;SDS011;63685;47.374;8.498;2022-10-16T12:25:37;1.40;;;0.80;;
75098;SDS011;63685;47.374;8.498;2022-10-16T12:31:06;1.55;;;0.80;;
75098;SDS011;63685;47.374;8.498;2022-10-16T12:33:37;1.00;;;0.60;;
75098;SDS011;63685;47.374;8.498;2022-10-16T12:36:10;1.70;;;0.85;;
75098;SDS011;63685;47.374;8.498;2022-10-16T12:38:51;1.10;;;0.60;;
75098;SDS011;63685;47.374;8.498;2022-10-16T12:41:33;1.13;;;0.60;;
75098;SDS011;63685;47.374;8.498;2022-10-16T12:44:00;1.50;;;0.90;;
75098;SDS011;63685;47.374;8.498;2022-10-16T12:49:06;1.58;;;0.70;;
75098;SDS011;63685;47.374;8.498;2022-10-16T12:51:34;1.42;;;0.75;;
75098;SDS011;63685;47.374;8.498;2022-10-16T12:54:20;1.02;;;0.60;;
75098;SDS011;63685;47.374;8.498;2022-10-16T12:59:42;1.67;;;0.90;;
75098;SDS011;63685;47.374;8.498;2022-10-16T13:07:41;1.20;;;0.73;;
75098;SDS011;63685;47.374;8.498;2022-10-16T13:13:31;1.35;;;0.82;;
75098;SDS011;63685;47.374;8.498;2022-10-16T13:16:12;1.30;;;0.80;;
75098;SDS011;63685;47.374;8.498;2022-10-16T13:26:57;1.45;;;1.00;;
75098;SDS011;63685;47.374;8.498;2022-10-16T13:29:37;1.55;;;0.82;;
75098;SDS011;63685;47.374;8.498;2022-10-16T13:32:09;1.70;;;0.98;;
75098;SDS011;63685;47.374;8.498;2022-10-16T13:34:45;1.70;;;1.00;;
75098;SDS011;63685;47.374;8.498;2022-10-16T13:37:17;1.67;;;1.00;;
75098;SDS011;63685;47.374;8.498;2022-10-16T13:39:44;1.80;;;1.02;;
75098;SDS011;63685;47.374;8.498;2022-10-16T13:42:10;1.55;;;0.98;;
75098;SDS011;63685;47.374;8.498;2022-10-16T13:44:43;1.65;;;1.08;;
75098;SDS011;63685;47.374;8.498;2022-10-16T13:47:22;2.03;;;1.27;;
75098;SDS011;63685;47.374;8.498;2022-10-16T13:49:59;1.88;;;1.10;;
75098;SDS011;63685;47.374;8.498;2022-10-16T13:52:28;1.52;;;0.98;;
75098;SDS011;63685;47.374;8.498;2022-10-16T13:54:54;1.70;;;0.95;;
75098;SDS011;63685;47.374;8.498;2022-10-16T13:57:21;2.00;;;1.05;;
75098;SDS011;63685;47.374;8.498;2022-10-16T13:59:49;1.65;;;0.98;;
75098;SDS011;63685;47.374;8.498;2022-10-16T14:02:20;1.67;;;1.00;;
75098;SDS011;63685;47.374;8.498;2022-10-16T14:04:51;1.70;;;1.17;;
75098;SDS011;63685;47.374;8.498;2022-10-16T14:07:25;1.40;;;0.90;;
75098;SDS011;63685;47.374;8.498;2022-10-16T14:09:54;1.60;;;0.90;;
75098;SDS011;63685;47.374;8.498;2022-10-16T14:12:19;1.50;;;0.80;;
75098;SDS011;63685;47.374;8.498;2022-10-16T14:14:47;1.48;;;0.95;;
75098;SDS011;63685;47.374;8.498;2022-10-16T14:17:22;1.67;;;0.93;;
75098;SDS011;63685;47.374;8.498;2022-10-16T14:19:53;1.40;;;0.88;;
75098;SDS011;63685;47.374;8.498;2022-10-16T14:22:29;1.50;;;0.80;;
75098;SDS011;63685;47.374;8.498;2022-10-16T14:25:00;1.58;;;0.80;;
75098;SDS011;63685;47.374;8.498;2022-10-16T14:27:30;1.48;;;0.90;;
75098;SDS011;63685;47.374;8.498;2022-10-16T14:30:13;1.60;;;0.93;;
75098;SDS011;63685;47.374;8.498;2022-10-16T14:32:42;1.60;;;0.93;;
75098;SDS011;63685;47.374;8.498;2022-10-16T14:37:55;1.83;;;1.00;;
75098;SDS011;63685;47.374;8.498;2022-10-16T14:40:23;1.40;;;0.88;;
75098;SDS011;63685;47.374;8.498;2022-10-16T14:42:51;1.52;;;0.90;;
75098;SDS011;63685;47.374;8.498;2022-10-16T14:45:20;1.52;;;0.93;;
75098;SDS011;63685;47.374;8.498;2022-10-16T14:47:49;1.70;;;1.10;;
75098;SDS011;63685;47.374;8.498;2022-10-16T14:50:18;1.65;;;1.00;;
75098;SDS011;63685;47.374;8.498;2022-10-16T14:52:44;1.50;;;0.88;;
75098;SDS011;63685;47.374;8.498;2022-10-16T14:55:10;1.50;;;0.93;;
75098;SDS011;63685;47.374;8.498;2022-10-16T14:57:36;1.80;;;0.85;;
75098;SDS011;63685;47.374;8.498;2022-10-16T15:00:04;1.60;;;1.00;;
75098;SDS011;63685;47.374;8.498;2022-10-16T15:02:38;1.60;;;0.90;;
75098;SDS011;63685;47.374;8.498;2022-10-16T15:05:15;1.88;;;0.95;;
75098;SDS011;63685;47.374;8.498;2022-10-16T15:07:45;1.50;;;0.90;;
75098;SDS011;63685;47.374;8.498;2022-10-16T15:10:14;1.45;;;0.80;;
75098;SDS011;63685;47.374;8.498;2022-10-16T15:12:41;1.52;;;0.80;;
75098;SDS011;63685;47.374;8.498;2022-10-16T15:17:48;1.40;;;0.75;;
75098;SDS011;63685;47.374;8.498;2022-10-16T15:20:17;1.52;;;0.85;;
75098;SDS011;63685;47.374;8.498;2022-10-16T15:22:43;1.27;;;0.77;;
75098;SDS011;63685;47.374;8.498;2022-10-16T15:25:13;1.63;;;0.90;;
75098;SDS011;63685;47.374;8.498;2022-10-16T15:27:49;1.40;;;0.98;;
75098;SDS011;63685;47.374;8.498;2022-10-16T15:30:15;1.98;;;0.80;;
75098;SDS011;63685;47.374;8.498;2022-10-16T15:32:40;1.77;;;1.10;;
75098;SDS011;63685;47.374;8.498;2022-10-16T15:35:08;1.63;;;1.00;;
75098;SDS011;63685;47.374;8.498;2022-10-16T15:37:34;1.42;;;0.80;;
75098;SDS011;63685;47.374;8.498;2022-10-16T15:39:59;1.98;;;1.00;;
75098;SDS011;63685;47.374;8.498;2022-10-16T15:42:25;1.60;;;1.00;;
75098;SDS011;63685;47.374;8.498;2022-10-16T15:44:50;1.60;;;0.90;;
75098;SDS011;63685;47.374;8.498;2022-10-16T15:47:16;1.73;;;1.00;;
75098;SDS011;63685;47.374;8.498;2022-10-16T15:49:41;1.60;;;0.90;;
75098;SDS011;63685;47.374;8.498;2022-10-16T15:52:07;3.28;;;1.17;;
75098;SDS011;63685;47.374;8.498;2022-10-16T15:54:32;1.50;;;0.90;;
75098;SDS011;63685;47.374;8.498;2022-10-16T15:56:58;1.65;;;0.80;;
75098;SDS011;63685;47.374;8.498;2022-10-16T15:59:24;1.80;;;1.10;;
75098;SDS011;63685;47.374;8.498;2022-10-16T16:01:49;1.30;;;0.88;;
75098;SDS011;63685;47.374;8.498;2022-10-16T16:04:15;1.63;;;1.02;;
75098;SDS011;63685;47.374;8.498;2022-10-16T16:06:41;1.73;;;1.00;;
75098;SDS011;63685;47.374;8.498;2022-10-16T16:09:09;1.52;;;0.90;;
75098;SDS011;63685;47.374;8.498;2022-10-16T16:11:36;1.58;;;1.00;;
75098;SDS011;63685;47.374;8.498;2022-10-16T16:14:04;3.15;;;0.88;;
75098;SDS011;63685;47.374;8.498;2022-10-16T16:16:30;1.67;;;1.00;;
75098;SDS011;63685;47.374;8.498;2022-10-16T16:18:56;1.83;;;0.93;;
75098;SDS011;63685;47.374;8.498;2022-10-16T16:21:22;1.50;;;0.77;;
75098;SDS011;63685;47.374;8.498;2022-10-16T16:23:47;1.83;;;1.00;;
75098;SDS011;63685;47.374;8.498;2022-10-16T16:28:52;1.70;;;0.90;;
75098;SDS011;63685;47.374;8.498;2022-10-16T16:31:19;1.40;;;0.85;;
75098;SDS011;63685;47.374;8.498;2022-10-16T16:33:45;1.50;;;0.85;;
75098;SDS011;63685;47.374;8.498;2022-10-16T16:36:10;1.83;;;1.08;;
75098;SDS011;63685;47.374;8.498;2022-10-16T16:38:36;1.50;;;0.88;;
75098;SDS011;63685;47.374;8.498;2022-10-16T16:41:15;1.85;;;0.95;;
75098;SDS011;63685;47.374;8.498;2022-10-16T16:43:42;1.83;;;1.10;;
75098;SDS011;63685;47.374;8.498;2022-10-16T16:46:07;1.63;;;0.90;;